Aérodrome :
LOGIN :

S'inscrire | Disclaimer

   EN    FR    IT 

 










Légende :    VFR   VFR Marginal   IFR   IFR Intensif   IFR Très Intensif
Visi : 
Plafond : 
>= 8 km
>= 3000ft
5 à 8 km
1000 à 3000 ft
1500m à 5 km
500 à 1000 ft
800 à 1500m
200 à 500 ft
< 800m
< 200 ft
Symboles :   Orages  Brouillard  Fortes neiges  Fortes précipitations  Vent > 20 kt
SIGMETs :   Divers  Orages  Givrage  Turbulence  Onde Orograph.  Cendres Volcan.






- Altitude de l'aérodrome : 358 ft


EGTC - Cranfield

DERNIER METAR :
  • 251120Z 21008KT 8000 BKN015 06/05 Q1018

METARs EXPIRÉS :
  • 251050Z 20009KT 8000 BKN015 06/05 Q1019
  • 251020Z 20009KT 8000 BKN015 06/05 Q1019
  • 250950Z 20009KT 8000 BKN017 06/05 Q1019
  • 250920Z 21009KT 8000 BKN017 06/05 Q1019

TAF TAF EGTC
Valide du 25 à 12h jusqu'au 25 à 18h UTC


251108Z 2512/2518 19008KT 8000 BKN013
BECMG 2512/2515 BKN007
PROB40
TEMPO 2514/2518 2500 -DZ BR BKN004



MET'MAP, la Météo Aéronautique d'un coup d'oeil ! - Copyright ORBIFLY Décembre 2007 - Disclaimer

ORBIFLY MET'MAP TEAM :

Programmation & Développement : Alexandra Zaïnal
Sur une idée originale de : Baudouin d'Aumeries
Assistance à la programmation : Marc-Olivier Méhu
Soutien technique & logistique : Manuel Goepfert

Contact : metmap@orbifly.com




SOURCES & CREDITS :

   NOAA